createdAt,value
2023-03-30T00:01:05.983Z,37.47
2023-03-30T00:03:33.370Z,38.73
2023-03-30T00:06:05.236Z,36.25
2023-03-30T00:08:33.425Z,35.05
2023-03-30T00:11:02.064Z,36.63
2023-03-30T00:13:29.357Z,35.30
2023-03-30T00:15:56.221Z,35.67
2023-03-30T00:18:22.792Z,34.58
2023-03-30T00:20:50.721Z,34.22
2023-03-30T00:23:20.596Z,34.95
2023-03-30T00:25:47.160Z,32.90
2023-03-30T00:28:14.047Z,34.95
2023-03-30T00:30:40.527Z,34.42
2023-03-30T00:33:07.242Z,35.10
2023-03-30T00:35:33.952Z,35.08
2023-03-30T00:38:04.255Z,34.55
2023-03-30T00:43:06.551Z,32.42
2023-03-30T00:45:34.886Z,33.92
2023-03-30T00:48:07.049Z,33.58
2023-03-30T00:50:44.900Z,35.03
2023-03-30T00:53:19.120Z,37.03
2023-03-30T00:55:48.578Z,35.42
2023-03-30T00:58:17.926Z,34.05
2023-03-30T01:00:47.262Z,33.33
2023-03-30T01:03:24.889Z,33.95
2023-03-30T01:05:53.129Z,34.45
2023-03-30T01:08:20.510Z,33.60
2023-03-30T01:10:47.149Z,33.05
2023-03-30T01:13:15.118Z,33.78
2023-03-30T01:16:01.564Z,34.67
2023-03-30T01:18:48.011Z,33.70
2023-03-30T01:21:15.950Z,32.03
2023-03-30T01:24:22.283Z,33.53
2023-03-30T01:26:57.898Z,30.77
2023-03-30T01:29:24.648Z,34.60
2023-03-30T01:32:27.574Z,34.22
2023-03-30T01:35:12.627Z,34.65
2023-03-30T01:37:48.651Z,31.90
2023-03-30T01:40:27.572Z,32.90
2023-03-30T01:43:09.238Z,33.83
2023-03-30T01:45:43.344Z,32.28
2023-03-30T01:48:45.324Z,31.75
2023-03-30T01:51:19.666Z,32.05
2023-03-30T01:54:17.898Z,35.25
2023-03-30T01:56:50.863Z,39.13
2023-03-30T01:59:23.851Z,40.38
2023-03-30T02:01:54.117Z,41.58
2023-03-30T02:06:59.628Z,40.55
2023-03-30T02:09:29.152Z,43.22
2023-03-30T02:11:56.937Z,41.45
2023-03-30T02:14:28.701Z,41.92
2023-03-30T02:17:04.720Z,41.72
2023-03-30T02:19:31.801Z,43.17
2023-03-30T02:21:59.043Z,43.03
2023-03-30T02:24:28.950Z,44.08
2023-03-30T02:26:55.849Z,46.83
2023-03-30T02:29:23.097Z,46.95
2023-03-30T02:31:53.420Z,46.42
2023-03-30T02:34:43.452Z,46.78
2023-03-30T02:37:20.972Z,47.17
2023-03-30T02:39:59.286Z,46.38
2023-03-30T02:43:04.925Z,45.13
2023-03-30T02:45:42.044Z,44.58
2023-03-30T02:48:27.394Z,44.35
2023-03-30T02:51:14.404Z,43.38
2023-03-30T02:53:53.256Z,43.05
2023-03-30T02:56:31.878Z,42.88
2023-03-30T02:59:10.308Z,41.55
2023-03-30T03:01:44.129Z,43.97
2023-03-30T03:04:18.822Z,42.38
2023-03-30T03:06:46.331Z,43.92
2023-03-30T03:09:12.728Z,42.05
2023-03-30T03:11:39.293Z,43.50
2023-03-30T03:14:05.915Z,42.58
2023-03-30T03:16:32.412Z,43.17
2023-03-30T03:18:58.834Z,43.78
2023-03-30T03:21:25.291Z,44.88
2023-03-30T03:23:51.801Z,41.60
2023-03-30T03:26:18.591Z,39.95
2023-03-30T03:28:45.068Z,43.40
2023-03-30T03:31:12.203Z,42.90
2023-03-30T03:33:38.686Z,42.70
2023-03-30T03:36:05.816Z,44.63
2023-03-30T03:38:32.891Z,44.45
2023-03-30T03:40:59.874Z,43.95
2023-03-30T03:43:26.581Z,45.58
2023-03-30T03:45:53.380Z,42.20
2023-03-30T03:48:22.149Z,46.78
2023-03-30T03:50:53.328Z,46.65
2023-03-30T03:53:20.446Z,45.15
2023-03-30T03:55:47.167Z,45.72
2023-03-30T03:58:14.897Z,47.00
2023-03-30T04:00:41.532Z,45.95
2023-03-30T04:03:09.232Z,46.25
2023-03-30T04:05:36.409Z,47.53
2023-03-30T04:08:03.257Z,45.00
2023-03-30T04:10:30.206Z,46.25
2023-03-30T04:12:58.100Z,46.30
2023-03-30T04:15:25.396Z,45.83
2023-03-30T04:17:57.912Z,44.58
2023-03-30T04:20:26.533Z,46.70
2023-03-30T04:22:53.541Z,46.53
2023-03-30T04:25:28.852Z,45.38
2023-03-30T04:27:56.738Z,45.22
2023-03-30T04:30:23.698Z,46.05
2023-03-30T04:33:03.356Z,46.78
2023-03-30T04:37:58.321Z,43.45
2023-03-30T04:40:24.897Z,43.63
2023-03-30T04:42:51.318Z,42.47
2023-03-30T04:45:19.030Z,43.92
2023-03-30T04:47:48.575Z,44.72
2023-03-30T04:50:15.615Z,45.78
2023-03-30T04:52:42.242Z,46.13
2023-03-30T04:55:09.915Z,43.67
2023-03-30T04:57:36.417Z,44.58
2023-03-30T05:00:08.111Z,43.83
2023-03-30T05:02:35.156Z,42.45
2023-03-30T05:05:01.975Z,42.58
2023-03-30T05:07:28.465Z,42.33
2023-03-30T05:09:54.977Z,42.58
2023-03-30T05:12:21.643Z,41.45
2023-03-30T05:14:48.103Z,41.08
2023-03-30T05:17:14.581Z,41.90
2023-03-30T05:19:41.471Z,40.17
2023-03-30T05:22:08.244Z,39.97
2023-03-30T05:24:34.743Z,39.38
2023-03-30T05:27:02.252Z,38.78
2023-03-30T05:29:28.746Z,36.20
2023-03-30T05:31:55.401Z,35.10
2023-03-30T05:34:21.912Z,34.03
2023-03-30T05:36:48.459Z,33.53
2023-03-30T05:39:15.225Z,30.88
2023-03-30T05:41:41.659Z,29.40
2023-03-30T05:44:08.207Z,31.33
2023-03-30T05:46:34.740Z,27.33
2023-03-30T05:49:01.377Z,26.83
2023-03-30T05:51:28.404Z,24.88
2023-03-30T05:53:54.986Z,24.55
2023-03-30T05:56:23.486Z,24.15
2023-03-30T05:58:49.953Z,35.83
2023-03-30T06:01:16.894Z,39.65
2023-03-30T06:03:43.658Z,39.15
2023-03-30T06:06:10.913Z,40.22
2023-03-30T06:08:37.358Z,40.53
2023-03-30T06:11:04.563Z,40.88
2023-03-30T06:13:31.881Z,40.83
2023-03-30T06:15:59.657Z,40.67
2023-03-30T06:18:28.019Z,40.47
2023-03-30T06:20:54.459Z,39.70
2023-03-30T06:23:21.194Z,41.67
2023-03-30T06:25:53.156Z,40.75
2023-03-30T06:28:20.594Z,41.95
2023-03-30T06:30:49.143Z,41.88
2023-03-30T06:33:19.294Z,41.28
2023-03-30T06:35:51.160Z,41.08
2023-03-30T06:38:19.485Z,41.22
2023-03-30T06:40:46.004Z,40.78
2023-03-30T06:43:17.965Z,40.72
2023-03-30T06:45:51.047Z,40.60
2023-03-30T06:48:19.714Z,39.97
2023-03-30T06:50:47.391Z,41.58
2023-03-30T06:53:14.085Z,41.42
2023-03-30T06:55:42.089Z,41.03
2023-03-30T06:58:09.548Z,41.38
2023-03-30T07:00:36.393Z,41.00
2023-03-30T07:03:04.071Z,40.42
2023-03-30T07:05:30.655Z,39.45
2023-03-30T07:07:57.547Z,39.75
2023-03-30T07:10:24.225Z,38.42
2023-03-30T07:12:50.676Z,37.40
2023-03-30T07:15:17.770Z,36.05
2023-03-30T07:17:45.036Z,35.00
2023-03-30T07:20:14.909Z,37.17
2023-03-30T07:22:44.811Z,37.00
2023-03-30T07:25:11.480Z,36.15
2023-03-30T07:27:38.184Z,35.70
2023-03-30T07:30:18.005Z,35.03
2023-03-30T07:32:48.987Z,35.50
2023-03-30T07:35:15.821Z,34.85
2023-03-30T07:37:43.004Z,36.15
2023-03-30T07:40:10.052Z,36.00
2023-03-30T07:42:37.185Z,36.33
2023-03-30T07:45:04.860Z,35.72
2023-03-30T07:47:31.396Z,36.35
2023-03-30T07:49:58.390Z,35.72
2023-03-30T07:52:25.271Z,34.47
2023-03-30T07:54:52.433Z,35.20
2023-03-30T07:57:19.042Z,35.97
2023-03-30T07:59:45.816Z,34.78
2023-03-30T08:02:14.279Z,33.88
2023-03-30T08:04:44.510Z,32.67
2023-03-30T08:07:12.065Z,32.42
2023-03-30T08:09:39.672Z,31.52
2023-03-30T08:12:07.409Z,30.70
2023-03-30T08:14:33.917Z,29.08
2023-03-30T08:17:00.700Z,27.75
2023-03-30T08:19:28.502Z,27.17
2023-03-30T08:21:56.743Z,25.92
2023-03-30T08:24:23.372Z,25.88
2023-03-30T08:26:49.823Z,24.13
2023-03-30T08:29:17.045Z,23.30
2023-03-30T08:31:43.732Z,22.92
2023-03-30T08:34:10.247Z,22.90
2023-03-30T08:36:36.716Z,23.58
2023-03-30T08:39:05.071Z,22.45
2023-03-30T08:41:59.860Z,21.70
2023-03-30T08:44:26.482Z,22.85
2023-03-30T08:46:54.736Z,23.27
2023-03-30T08:49:22.278Z,22.20
2023-03-30T08:51:52.768Z,23.13
2023-03-30T08:54:22.292Z,23.13
2023-03-30T08:57:04.731Z,21.10
2023-03-30T08:59:52.062Z,19.38
2023-03-30T09:02:23.542Z,19.67
2023-03-30T09:05:04.729Z,17.75
2023-03-30T09:07:39.835Z,17.83
2023-03-30T09:10:13.668Z,19.58
2023-03-30T09:12:48.090Z,16.83
2023-03-30T09:15:31.893Z,18.02
2023-03-30T09:18:01.631Z,18.50
2023-03-30T09:20:30.599Z,16.55
2023-03-30T09:23:01.930Z,15.25
2023-03-30T09:25:31.371Z,14.98
2023-03-30T09:28:17.795Z,14.38
2023-03-30T09:30:51.983Z,14.18
2023-03-30T09:33:33.453Z,13.68
2023-03-30T09:36:11.619Z,14.30
2023-03-30T09:38:41.765Z,14.52
2023-03-30T09:41:24.403Z,15.32
2023-03-30T09:43:51.763Z,17.67
2023-03-30T09:46:18.369Z,17.10
2023-03-30T09:48:49.803Z,15.77
2023-03-30T09:51:31.083Z,16.27
2023-03-30T09:54:01.733Z,16.98
2023-03-30T09:58:56.268Z,15.95
2023-03-30T10:01:34.312Z,17.30
2023-03-30T10:04:11.402Z,13.95
2023-03-30T10:06:46.735Z,14.27
2023-03-30T10:09:14.271Z,12.80
2023-03-30T10:11:52.054Z,12.15
2023-03-30T10:14:38.922Z,12.40
2023-03-30T10:17:06.611Z,12.20
2023-03-30T10:19:37.134Z,12.52
2023-03-30T10:22:17.070Z,11.50
2023-03-30T10:25:18.032Z,11.20
2023-03-30T10:27:45.585Z,11.38
2023-03-30T10:30:18.292Z,10.57
2023-03-30T10:32:48.543Z,11.13
2023-03-30T10:35:21.991Z,11.13
2023-03-30T10:37:52.476Z,11.07
2023-03-30T10:40:27.607Z,11.38
2023-03-30T10:42:57.549Z,10.95
2023-03-30T10:45:40.923Z,11.52
2023-03-30T10:48:37.767Z,11.43
2023-03-30T10:51:15.857Z,10.85
2023-03-30T10:54:13.153Z,11.75
2023-03-30T10:56:53.900Z,11.15
2023-03-30T10:59:48.246Z,11.40
2023-03-30T11:02:51.634Z,11.50
2023-03-30T11:05:33.180Z,11.07
2023-03-30T11:08:11.468Z,11.57
2023-03-30T11:10:46.184Z,11.77
2023-03-30T11:13:15.409Z,12.25
2023-03-30T11:15:53.804Z,10.60
2023-03-30T11:18:26.050Z,13.63
2023-03-30T11:20:56.883Z,11.07
2023-03-30T11:23:55.933Z,10.68
2023-03-30T11:26:39.274Z,11.20
2023-03-30T11:29:38.217Z,11.23
2023-03-30T11:32:16.245Z,10.23
2023-03-30T11:35:01.318Z,10.77
2023-03-30T11:37:43.205Z,11.30
2023-03-30T11:40:27.518Z,11.82
2023-03-30T11:42:54.952Z,10.85
2023-03-30T11:45:42.097Z,11.40
2023-03-30T11:48:30.081Z,11.60
2023-03-30T11:51:11.336Z,10.90
2023-03-30T11:53:56.522Z,10.93
2023-03-30T11:56:58.183Z,16.48
2023-03-30T11:59:56.307Z,13.02
2023-03-30T12:02:38.742Z,12.35
2023-03-30T12:05:16.794Z,14.40
2023-03-30T12:08:17.400Z,29.27
2023-03-30T12:10:47.630Z,30.20
2023-03-30T12:16:06.497Z,29.52
2023-03-30T12:18:58.066Z,30.50
2023-03-30T12:21:33.339Z,30.77
2023-03-30T12:24:31.237Z,31.23
2023-03-30T12:27:05.514Z,31.65
2023-03-30T12:32:28.373Z,31.80
2023-03-30T12:34:57.221Z,31.92
2023-03-30T12:37:36.290Z,31.13
2023-03-30T12:40:09.152Z,31.30
2023-03-30T12:42:46.169Z,30.48
2023-03-30T12:45:15.611Z,29.60
2023-03-30T12:48:20.833Z,28.58
2023-03-30T12:50:59.059Z,26.98
2023-03-30T12:53:47.184Z,25.33
2023-03-30T12:56:29.034Z,21.17
2023-03-30T12:59:23.245Z,19.25
2023-03-30T13:02:27.376Z,15.95
2023-03-30T13:04:54.309Z,14.45
2023-03-30T13:07:24.460Z,13.75
2023-03-30T13:12:40.160Z,13.60
2023-03-30T13:15:30.053Z,13.43
2023-03-30T13:17:58.110Z,13.23
2023-03-30T13:20:57.578Z,14.15
2023-03-30T13:23:27.324Z,13.20
2023-03-30T13:26:05.113Z,12.35
2023-03-30T13:29:09.198Z,12.70
2023-03-30T13:31:51.105Z,12.57
2023-03-30T13:34:29.105Z,12.40
2023-03-30T13:37:16.030Z,11.38
2023-03-30T13:39:52.725Z,11.82
2023-03-30T13:42:35.558Z,11.75
2023-03-30T13:45:14.803Z,11.30
2023-03-30T13:47:48.788Z,11.70
2023-03-30T13:50:18.452Z,11.40
2023-03-30T13:52:48.029Z,11.00
2023-03-30T13:55:24.426Z,11.45
2023-03-30T13:57:57.364Z,11.30
2023-03-30T14:00:47.262Z,11.02
2023-03-30T14:03:27.381Z,10.65
2023-03-30T14:06:03.226Z,11.50
2023-03-30T14:08:35.438Z,11.15
2023-03-30T14:11:06.960Z,11.45
2023-03-30T14:13:36.851Z,11.75
2023-03-30T14:16:03.616Z,11.07
2023-03-30T14:18:30.593Z,11.05
2023-03-30T14:21:00.679Z,11.18
2023-03-30T14:23:48.662Z,11.93
2023-03-30T14:26:18.065Z,11.77
2023-03-30T14:28:47.007Z,12.00
2023-03-30T14:31:19.698Z,11.95
2023-03-30T14:33:47.115Z,11.65
2023-03-30T14:36:17.714Z,12.13
2023-03-30T14:38:48.262Z,12.77
2023-03-30T14:41:22.606Z,13.02
2023-03-30T14:43:59.073Z,12.90
2023-03-30T14:46:38.685Z,13.27
2023-03-30T14:49:05.995Z,13.23
2023-03-30T14:51:42.353Z,11.95
2023-03-30T14:54:15.068Z,11.88
2023-03-30T14:56:44.690Z,11.95
2023-03-30T14:59:13.043Z,12.23
2023-03-30T15:01:40.716Z,11.80
2023-03-30T15:04:18.751Z,12.50
2023-03-30T15:06:47.311Z,12.15
2023-03-30T15:09:19.186Z,12.93
2023-03-30T15:11:51.512Z,12.25
2023-03-30T15:14:22.300Z,11.98
2023-03-30T15:16:53.853Z,11.88
2023-03-30T15:19:31.922Z,11.82
2023-03-30T15:22:03.200Z,12.05
2023-03-30T15:24:35.051Z,12.45
2023-03-30T15:27:05.356Z,12.18
2023-03-30T15:29:33.090Z,21.60
2023-03-30T15:32:22.129Z,27.30
2023-03-30T15:35:22.373Z,27.08
2023-03-30T15:40:47.372Z,29.20
2023-03-30T15:43:36.663Z,29.20
2023-03-30T15:46:12.572Z,28.95
2023-03-30T15:48:49.856Z,28.33
2023-03-30T15:51:33.291Z,26.63
2023-03-30T15:54:03.127Z,25.42
2023-03-30T15:56:37.592Z,25.70
2023-03-30T15:59:05.885Z,23.48
2023-03-30T16:01:52.647Z,23.30
2023-03-30T16:04:21.603Z,23.23
2023-03-30T16:06:48.304Z,20.75
2023-03-30T16:09:16.127Z,19.38
2023-03-30T16:11:45.057Z,18.77
2023-03-30T16:14:14.724Z,18.48
2023-03-30T16:16:41.313Z,18.23
2023-03-30T16:19:17.344Z,19.15
2023-03-30T16:21:45.402Z,17.70
2023-03-30T16:24:12.918Z,16.65
2023-03-30T16:26:39.758Z,15.70
2023-03-30T16:29:21.897Z,15.60
2023-03-30T16:31:49.818Z,15.15
2023-03-30T16:34:16.471Z,16.05
2023-03-30T16:36:45.944Z,15.73
2023-03-30T16:39:27.225Z,13.85
2023-03-30T16:41:54.872Z,16.25
2023-03-30T16:44:23.313Z,13.77
2023-03-30T16:46:51.351Z,13.50
2023-03-30T16:49:21.717Z,14.63
2023-03-30T16:51:48.557Z,13.75
2023-03-30T16:54:29.531Z,13.07
2023-03-30T16:56:57.641Z,12.93
2023-03-30T16:59:26.415Z,12.27
2023-03-30T17:01:53.117Z,12.60
2023-03-30T17:04:19.843Z,11.50
2023-03-30T17:06:46.441Z,12.88
2023-03-30T17:09:17.087Z,12.60
2023-03-30T17:11:45.085Z,13.15
2023-03-30T17:14:11.896Z,13.25
2023-03-30T17:16:39.622Z,12.80
2023-03-30T17:19:09.688Z,12.70
2023-03-30T17:21:36.117Z,12.02
2023-03-30T17:24:02.790Z,13.18
2023-03-30T17:26:29.211Z,12.80
2023-03-30T17:28:55.684Z,13.27
2023-03-30T17:31:22.756Z,13.60
2023-03-30T17:33:49.444Z,13.27
2023-03-30T17:36:21.460Z,12.85
2023-03-30T17:38:48.919Z,12.90
2023-03-30T17:41:17.101Z,13.13
2023-03-30T17:43:43.805Z,13.52
2023-03-30T17:46:14.565Z,14.32
2023-03-30T17:48:42.163Z,14.45
2023-03-30T17:51:09.241Z,13.02
2023-03-30T17:53:35.848Z,12.68
2023-03-30T17:56:02.305Z,16.70
2023-03-30T17:58:34.618Z,16.50
2023-03-30T18:01:04.478Z,15.35
2023-03-30T18:03:31.453Z,14.23
2023-03-30T18:06:00.162Z,12.52
2023-03-30T18:08:27.416Z,14.20
2023-03-30T18:10:58.656Z,13.25
2023-03-30T18:13:27.598Z,13.60
2023-03-30T18:15:56.095Z,16.10
2023-03-30T18:18:26.226Z,15.73
2023-03-30T18:20:55.351Z,28.95
2023-03-30T18:23:22.888Z,29.95
2023-03-30T18:25:49.866Z,32.88
2023-03-30T18:28:19.315Z,34.05
2023-03-30T18:30:46.449Z,31.98
2023-03-30T18:33:15.963Z,33.47
2023-03-30T18:35:44.152Z,34.80
2023-03-30T18:38:12.602Z,34.50
2023-03-30T18:40:45.360Z,35.38
2023-03-30T18:43:12.725Z,47.00
2023-03-30T18:45:41.605Z,55.03
2023-03-30T18:48:11.355Z,38.85
2023-03-30T18:50:41.233Z,35.83
2023-03-30T18:53:13.486Z,34.40
2023-03-30T18:55:43.152Z,34.22
2023-03-30T18:58:21.043Z,34.00
2023-03-30T19:00:48.902Z,33.53
2023-03-30T19:03:16.697Z,33.47
2023-03-30T19:05:44.327Z,34.45
2023-03-30T19:08:12.635Z,34.75
2023-03-30T19:10:41.500Z,36.05
2023-03-30T19:13:11.941Z,34.70
2023-03-30T19:15:38.455Z,34.08
2023-03-30T19:18:05.624Z,34.08
2023-03-30T19:20:35.142Z,34.42
2023-03-30T19:23:01.606Z,33.88
2023-03-30T19:25:28.732Z,34.67
2023-03-30T19:28:03.227Z,34.03
2023-03-30T19:30:32.771Z,34.35
2023-03-30T19:33:02.192Z,34.65
2023-03-30T19:35:29.067Z,35.83
2023-03-30T19:37:56.229Z,35.08
2023-03-30T19:40:23.485Z,33.42
2023-03-30T19:42:50.811Z,33.75
2023-03-30T19:45:20.278Z,34.38
2023-03-30T19:47:47.055Z,36.00
2023-03-30T19:50:18.198Z,33.35
2023-03-30T19:52:48.528Z,33.97
2023-03-30T19:55:16.000Z,34.25
2023-03-30T19:57:42.617Z,33.55
2023-03-30T20:00:16.587Z,34.50
2023-03-30T20:02:45.829Z,34.58
2023-03-30T20:05:13.038Z,33.83
2023-03-30T20:07:40.685Z,33.40
2023-03-30T20:10:09.974Z,34.92
2023-03-30T20:12:37.043Z,34.78
2023-03-30T20:15:05.898Z,34.08
2023-03-30T20:17:34.231Z,34.85
2023-03-30T20:20:06.753Z,34.05
2023-03-30T20:22:38.437Z,33.22
2023-03-30T20:25:07.908Z,34.40
2023-03-30T20:27:35.863Z,35.03
2023-03-30T20:30:04.207Z,34.67
2023-03-30T20:32:30.759Z,33.90
2023-03-30T20:34:57.327Z,33.58
2023-03-30T20:37:23.810Z,34.35
2023-03-30T20:39:50.539Z,33.10
2023-03-30T20:42:25.794Z,34.53
2023-03-30T20:44:53.451Z,34.92
2023-03-30T20:47:23.170Z,34.42
2023-03-30T20:49:49.716Z,33.92
2023-03-30T20:52:16.895Z,34.70
2023-03-30T20:54:44.673Z,34.17
2023-03-30T20:57:11.690Z,34.15
2023-03-30T20:59:39.381Z,34.67
2023-03-30T21:02:05.908Z,34.17
2023-03-30T21:04:36.885Z,32.60
2023-03-30T21:07:06.744Z,34.00
2023-03-30T21:09:34.110Z,34.50
2023-03-30T21:12:00.658Z,34.40
2023-03-30T21:14:27.340Z,34.40
2023-03-30T21:16:53.928Z,35.05
2023-03-30T21:19:20.489Z,34.20
2023-03-30T21:21:47.073Z,33.80
2023-03-30T21:24:13.869Z,34.88
2023-03-30T21:26:40.836Z,35.80
2023-03-30T21:29:07.300Z,33.17
2023-03-30T21:31:33.887Z,34.72
2023-03-30T21:34:01.150Z,33.92
2023-03-30T21:36:27.787Z,34.05
2023-03-30T21:38:56.230Z,34.88
2023-03-30T21:41:24.205Z,33.95
2023-03-30T21:43:50.805Z,33.03
2023-03-30T21:46:21.030Z,33.97
2023-03-30T21:51:19.650Z,34.35
2023-03-30T21:53:51.257Z,33.90
2023-03-30T21:56:19.709Z,34.20
2023-03-30T21:58:46.460Z,33.50
2023-03-30T22:01:13.158Z,32.95
2023-03-30T22:03:41.361Z,32.75
2023-03-30T22:06:10.833Z,33.97
2023-03-30T22:08:37.768Z,32.70
2023-03-30T22:11:06.250Z,33.78
2023-03-30T22:13:33.488Z,35.50
2023-03-30T22:16:02.473Z,33.92
2023-03-30T22:18:29.913Z,34.78
2023-03-30T22:21:00.993Z,33.88
2023-03-30T22:23:27.622Z,33.58
2023-03-30T22:25:54.302Z,33.78
2023-03-30T22:28:20.937Z,35.65
2023-03-30T22:30:48.202Z,34.22
2023-03-30T22:33:14.993Z,33.95
2023-03-30T22:35:43.846Z,34.17
2023-03-30T22:38:11.173Z,36.20
2023-03-30T22:40:39.617Z,34.40
2023-03-30T22:43:06.314Z,35.03
2023-03-30T22:45:33.249Z,33.58
2023-03-30T22:47:59.775Z,36.50
2023-03-30T22:50:27.828Z,33.10
2023-03-30T22:52:56.098Z,35.10
2023-03-30T22:55:23.716Z,34.83
2023-03-30T22:57:53.231Z,35.08
2023-03-30T23:00:21.198Z,34.92
2023-03-30T23:02:49.790Z,34.40
2023-03-30T23:05:17.057Z,34.85
2023-03-30T23:07:44.231Z,33.28
2023-03-30T23:10:14.667Z,36.35
2023-03-30T23:15:08.950Z,35.10
2023-03-30T23:17:35.821Z,33.58
2023-03-30T23:20:05.377Z,34.55
2023-03-30T23:22:33.925Z,34.88
2023-03-30T23:25:00.372Z,34.30
2023-03-30T23:27:27.049Z,34.75
2023-03-30T23:29:53.536Z,34.35
2023-03-30T23:32:19.994Z,35.05
2023-03-30T23:34:46.717Z,35.33
2023-03-30T23:37:13.389Z,34.50
2023-03-30T23:39:40.092Z,35.60
2023-03-30T23:42:07.075Z,35.03
2023-03-30T23:44:34.103Z,34.63
2023-03-30T23:47:00.865Z,36.65
2023-03-30T23:49:27.335Z,37.42
2023-03-30T23:51:53.893Z,35.80
2023-03-30T23:54:21.154Z,37.20
2023-03-30T23:56:48.986Z,36.67
2023-03-30T23:59:16.023Z,36.58
